Meteo Giornale » Osservazioni meteo Turchia » Agri
ore: 19:50 - Osservazioni Meteo Agri
Lat. 39° 43' N Lon. 43° 2' E Alt. 1632 metri s.l.m.
24 °C
Molto Nuvoloso
Temp. 24 Ore
20 °C
27 °C
Sud-Ovest
14.8 Km/h
Dew point 20 °C
Umidità 78 %
Visibilità 10 Km
Il sole sorge alle ore 05:34
Il sole tramonta alle ore 18:41
| Data e Ora | Cielo e Fenomeni | T °C | DP °C | Um. % | Pres. hPa | Vis. km | Vento km/h | |
|---|---|---|---|---|---|---|---|---|
| Oggi h: 19:50 | Molto Nuvoloso | 24 | 20 | 78 | 1014 | 10 | SO 14.8 | |
| Oggi h: 18:50 | Molto Nuvoloso | 24 | 21 | 83 | 1014 | 10 | O/SO 14.8 | |
| Oggi h: 18:14 | Molto Nuvoloso | 25 | 21 | 78 | 1014 | 10 | O/NO 14.8 | |
| Oggi h: 17:50 | Pioggia | 25 | 21 | 78 | 1014 | 10 | O/NO 16.7 | |
| Oggi h: 16:50 | Molto Nuvoloso | 26 | 20 | 69 | 1014 | 10 | O/SO 16.7 | |
| Oggi h: 15:50 | Molto Nuvoloso | 25 | 20 | 73 | 1014 | 10 | O/SO 18.5 | |
| Oggi h: 14:50 | Molto Nuvoloso | 25 | 20 | 73 | 1014 | 10 | SO 22.2 | |
| Oggi h: 13:50 | Molto Nuvoloso | 27 | 19 | 61 | 1013 | 10 | O 18.5 | |
| Oggi h: 12:50 | Molto Nuvoloso | 25 | 19 | 69 | 1014 | 10 | SO 20.3 | |
| Oggi h: 11:50 | Molto Nuvoloso | 24 | 20 | 78 | 1013 | 10 | S/SO 11.1 | |
| Oggi h: 11:33 | Pioggia | 24 | 20 | 78 | 1013 | 10 | S/SO 14.8 | |
| Oggi h: 10:50 | Molto Nuvoloso | 24 | 20 | 78 | 1013 | 10 | S/SO 13 | |
| Oggi h: 09:50 | Temporale | 23 | 20 | 83 | 1014 | 6 | SO 9.3 | |
| Oggi h: 08:50 | Temporale | 21 | 20 | 94 | 1013 | 6 | S/SO 11.1 | |
| Oggi h: 08:26 | Temporale | 20 | 20 | 100 | 1013 | 6 | S/SO 14.8 | |
| Oggi h: 08:16 | Temporale | 20 | 20 | 100 | 1013 | 4 | S/SO 20.3 | |
| Oggi h: 07:50 | Temporale | 20 | 20 | 100 | 1014 | 2 | N 9.3 | |
| Oggi h: 06:50 | Temporale | 23 | 21 | 88 | 1013 | 10 | S/SO 16.7 | |
| Oggi h: 05:50 | Temporale | 21 | 21 | 100 | 1012 | 6 | N 14.8 | |
| Oggi h: 05:37 | Temporale | 22 | 22 | 100 | 1012 | 6 | S 7.4 | |
| Oggi h: 04:50 | Temporale | 22 | 22 | 100 | 1012 | 10 | S 7.4 | |
| Oggi h: 03:50 | Temporale | 22 | 21 | 94 | 1011 | 10 | S/SO 11.1 | |
| Oggi h: 03:23 | Temporale | 22 | 22 | 100 | 1011 | 10 | N 5.5 | |
| Oggi h: 03:08 | Pioggia Temporale nelle vicinanze | 23 | 21 | 88 | 1011 | 10 | S/SO 14.8 | |
| Oggi h: 02:50 | Molto Nuvoloso | 23 | 20 | 83 | 1011 | 10 | S/SO 14.8 | |
| Oggi h: 01:50 | Molto Nuvoloso | 22 | 21 | 94 | 1012 | 10 | S/SO 7.4 | |
| Oggi h: 00:50 | Molto Nuvoloso | 22 | 22 | 100 | 1011 | 10 | N 3.7 | |
| Ieri h: 23:50 | Pioggia | 22 | 22 | 100 | 1011 | 10 | N 7.4 | |
| Ieri h: 22:50 | Temporale | 22 | 22 | 100 | 1012 | 10 | S/SE 14.8 | |
| Ieri h: 22:01 | Temporale | 23 | 21 | 88 | 1012 | 10 | O 9.3 | |
| Ieri h: 21:50 | Temporale | 23 | 21 | 88 | 1012 | 10 | O 9.3 | |
| Ieri h: 20:50 | Temporale | 23 | 22 | 94 | 1011 | 10 | S/SO 9.3 | |



